Latest Flight | Flight Log | Data Trends | Login | Join FlightData.com!
Date Range From To
Export:
Flight Log - N114TF - Click on row to view flight. Click on header to sort.
Date Origin Dest Depart Arrive Hobbs Flight Time Flight Distance Fuel Fuel/hr Fuel/nm Altitude Gnd Speed
Thu, Jul 14, 2016 7S3 7S3 20:07 20:08 0.02 hrs 0.00 hrs 0.00 nm 0.00 gal 0.00 gal/hr 0.00 gal/nm 0 msl 0 kts
Thu, Jul 14, 2016 7S3 7S3 20:03 20:03 0.01 hrs 0.00 hrs 0.00 nm 0.00 gal 0.00 gal/hr 0.00 gal/nm 0 msl 0 kts
Thu, Jul 14, 2016 7S3 7S3 19:29 20:01 0.54 hrs 0.51 hrs 46.52 nm 0.00 gal 0.00 gal/hr 0.00 gal/nm 15104 msl 92 kts
Thu, Jul 14, 2016 7S3 7S3 19:24 19:26 0.03 hrs 0.03 hrs 2.35 nm 0.00 gal 0.00 gal/hr 0.00 gal/nm 8894 msl 94 kts
Thu, Jul 14, 2016 7S3 7S3 19:01 19:22 0.35 hrs 0.25 hrs 21.40 nm 0.00 gal 0.00 gal/hr 0.00 gal/nm 6773 msl 88 kts
Thu, Jul 14, 2016 7S3 7S3 17:25 17:27 0.03 hrs 0.00 hrs 0.00 nm 0.00 gal 0.00 gal/hr 0.00 gal/nm 0 msl 0 kts
Thu, Jul 14, 2016 7S3 7S3 17:16 17:18 0.04 hrs 0.00 hrs 0.00 nm 0.00 gal 0.00 gal/hr 0.00 gal/nm 0 msl 0 kts
Thu, Jul 14, 2016 7S3 7S3 16:17 17:14 0.94 hrs 0.82 hrs 66.70 nm 0.00 gal 0.00 gal/hr 0.00 gal/nm 7058 msl 83 kts
Thu, Jul 14, 2016 7S3 7S3 15:27 15:54 0.46 hrs 0.30 hrs 29.22 nm 0.00 gal 0.00 gal/hr 0.00 gal/nm 3229 msl 100 kts
Thu, Jul 14, 2016 7S3 7S3 10:19 11:32 1.23 hrs 0.81 hrs 65.67 nm 0.00 gal 0.00 gal/hr 0.00 gal/nm 10153 msl 82 kts
Wed, Jul 13, 2016 7S3 7S3 20:51 20:56 0.08 hrs 0.00 hrs 0.00 nm 0.00 gal 0.00 gal/hr 0.00 gal/nm 0 msl 0 kts
Wed, Jul 13, 2016 7S3 7S3 20:36 20:40 0.07 hrs 0.00 hrs 0.00 nm 0.00 gal 0.00 gal/hr 0.00 gal/nm 0 msl 0 kts
Wed, Jul 13, 2016 7S3 7S3 20:28 20:29 0.02 hrs 0.00 hrs 0.00 nm 0.00 gal 0.00 gal/hr 0.00 gal/nm 0 msl 0 kts
Wed, Jul 13, 2016 7S3 7S3 19:46 20:22 0.6 hrs 0.52 hrs 43.18 nm 0.00 gal 0.00 gal/hr 0.00 gal/nm 8035 msl 84 kts
Wed, Jul 13, 2016 KMMV 7S3 19:23 19:43 0.35 hrs 0.29 hrs 24.51 nm 0.00 gal 0.00 gal/hr 0.00 gal/nm 10368 msl 84 kts
Wed, Jul 13, 2016 7S3 KMMV 18:47 19:06 0.32 hrs 0.21 hrs 21.72 nm 0.00 gal 0.00 gal/hr 0.00 gal/nm 2435 msl 102 kts
Wed, Jul 13, 2016 7S3 7S3 18:14 18:30 0.28 hrs 0.15 hrs 12.64 nm 0.00 gal 0.00 gal/hr 0.00 gal/nm 2148 msl 88 kts
Wed, Jul 13, 2016 7S3 7S3 17:15 17:40 0.42 hrs 0.25 hrs 18.95 nm 0.00 gal 0.00 gal/hr 0.00 gal/nm 1312 msl 76 kts
Wed, Jul 13, 2016 7S3 7S3 15:59 16:02 0.04 hrs 0.00 hrs 0.00 nm 0.00 gal 0.00 gal/hr 0.00 gal/nm 0 msl 0 kts
Tue, Jul 12, 2016 7S3 7S3 19:31 20:33 1.04 hrs 0.68 hrs 49.44 nm 0.00 gal 0.00 gal/hr 0.00 gal/nm 3583 msl 74 kts
          6.87 hrs 4.82 hrs 402.30 nm 0.00 gal